Time;durP1;ratioP1;P1;durP2;ratioP2;P2;SDS_P1;SDS_P2;PMS_P1;PMS_P2;Temp;Humidity;BMP_temperature;BMP_pressure;BME280_temperature;BME280_humidity;BME280_pressure;Samples;Min_cycle;Max_cycle;Signal;HPM_P1;HPM_P2
2021/12/09 00:02:06;;;;;;;12.95;6.30;;;;;;;;;;4958304;28;92363;-64
2021/12/09 00:04:32;;;;;;;14.73;5.75;;;;;;;;;;4979365;28;92103;-64
2021/12/09 00:07:00;;;;;;;26.45;7.13;;;;;;;;;;4957906;28;93309;-64
2021/12/09 00:09:27;;;;;;;11.07;5.47;;;;;;;;;;4958180;28;92554;-64
2021/12/09 00:11:53;;;;;;;12.93;7.13;;;;;;;;;;4973664;28;94768;-65
2021/12/09 00:14:24;;;;;;;20.95;6.35;;;;;;;;;;4970542;28;93028;-64
2021/12/09 00:16:51;;;;;;;15.48;6.35;;;;;;;;;;4973775;28;92772;-65
2021/12/09 00:19:18;;;;;;;12.63;6.40;;;;;;;;;;4974553;28;92502;-64
2021/12/09 00:21:44;;;;;;;14.50;6.18;;;;;;;;;;4974418;28;92417;-64
2021/12/09 00:24:11;;;;;;;23.45;6.65;;;;;;;;;;4977923;28;92401;-64
2021/12/09 00:26:38;;;;;;;19.42;6.35;;;;;;;;;;4967485;28;92980;-65
2021/12/09 00:29:05;;;;;;;15.00;6.05;;;;;;;;;;4972261;28;91784;-65
2021/12/09 00:31:32;;;;;;;20.40;6.82;;;;;;;;;;4975076;28;92559;-64
2021/12/09 00:34:00;;;;;;;14.15;5.97;;;;;;;;;;4957614;28;92695;-64
2021/12/09 00:36:36;;;;;;;21.63;6.88;;;;;;;;;;4972837;28;94764;-64
2021/12/09 00:39:05;;;;;;;21.88;6.80;;;;;;;;;;4975204;28;95781;-64
2021/12/09 00:41:31;;;;;;;17.73;5.68;;;;;;;;;;4957385;28;92328;-64
2021/12/09 00:43:58;;;;;;;18.80;6.55;;;;;;;;;;4974894;28;92366;-64
2021/12/09 00:46:24;;;;;;;14.27;6.72;;;;;;;;;;4977749;28;92550;-64
2021/12/09 00:48:50;;;;;;;20.15;8.00;;;;;;;;;;4954814;28;92776;-64
2021/12/09 00:51:17;;;;;;;23.58;9.02;;;;;;;;;;4974610;28;93518;-64
2021/12/09 00:53:43;;;;;;;24.60;11.40;;;;;;;;;;4957094;28;91700;-65
2021/12/09 00:56:10;;;;;;;20.27;7.25;;;;;;;;;;4956911;28;92619;-65
2021/12/09 00:58:40;;;;;;;20.50;6.82;;;;;;;;;;4974618;28;93717;-64
2021/12/09 01:01:07;;;;;;;19.45;6.20;;;;;;;;;;4973243;28;97002;-64
2021/12/09 01:03:35;;;;;;;15.93;6.22;;;;;;;;;;4974836;28;92496;-65
2021/12/09 01:06:02;;;;;;;13.50;5.75;;;;;;;;;;4974924;28;92390;-64
2021/12/09 01:08:39;;;;;;;11.13;5.60;;;;;;;;;;4977525;28;96291;-65
2021/12/09 01:11:06;;;;;;;17.27;6.03;;;;;;;;;;4975746;28;94502;-65
2021/12/09 01:13:33;;;;;;;14.63;5.70;;;;;;;;;;4973530;28;94835;-65
2021/12/09 01:15:59;;;;;;;11.82;5.68;;;;;;;;;;4974836;28;92356;-65
2021/12/09 01:18:31;;;;;;;11.75;5.95;;;;;;;;;;4974017;28;93196;-64
2021/12/09 01:20:57;;;;;;;10.05;5.22;;;;;;;;;;4973192;28;93437;-65
2021/12/09 01:23:23;;;;;;;14.55;5.97;;;;;;;;;;4974080;28;92679;-65
2021/12/09 01:25:57;;;;;;;23.85;5.75;;;;;;;;;;4970460;28;95032;-65
2021/12/09 01:28:27;;;;;;;16.15;5.93;;;;;;;;;;4972478;28;92460;-65
2021/12/09 01:31:01;;;;;;;18.92;5.50;;;;;;;;;;4957842;28;92927;-65
2021/12/09 01:33:28;;;;;;;15.20;5.75;;;;;;;;;;4972385;28;94351;-65
2021/12/09 01:35:54;;;;;;;12.75;5.60;;;;;;;;;;4974024;28;92597;-65
2021/12/09 01:38:22;;;;;;;9.38;5.10;;;;;;;;;;4973131;28;93070;-65
2021/12/09 01:40:49;;;;;;;19.52;6.35;;;;;;;;;;4973472;28;92413;-64
2021/12/09 01:43:15;;;;;;;16.75;5.90;;;;;;;;;;4974432;28;91658;-64
2021/12/09 01:45:42;;;;;;;18.25;6.63;;;;;;;;;;4973418;28;94010;-64
2021/12/09 01:48:08;;;;;;;20.98;5.72;;;;;;;;;;4971894;28;92971;-64
2021/12/09 01:50:35;;;;;;;11.25;5.05;;;;;;;;;;4970561;28;94873;-64
2021/12/09 01:53:02;;;;;;;19.10;5.50;;;;;;;;;;4974220;28;96557;-64
2021/12/09 01:55:30;;;;;;;11.38;4.80;;;;;;;;;;4971722;28;92512;-64
2021/12/09 01:57:57;;;;;;;13.90;5.38;;;;;;;;;;4970289;28;95645;-64
2021/12/09 02:00:26;;;;;;;17.58;5.35;;;;;;;;;;4954168;28;92812;-64
2021/12/09 02:02:53;;;;;;;18.27;5.72;;;;;;;;;;4954461;28;92688;-64
2021/12/09 02:05:26;;;;;;;12.50;5.10;;;;;;;;;;4973470;28;93112;-64
2021/12/09 02:07:52;;;;;;;11.07;5.28;;;;;;;;;;4973981;28;92738;-64
2021/12/09 02:10:19;;;;;;;18.55;5.22;;;;;;;;;;4974566;28;92327;-65
2021/12/09 02:12:49;;;;;;;20.88;5.05;;;;;;;;;;4975422;28;93317;-64
2021/12/09 02:15:16;;;;;;;21.95;5.47;;;;;;;;;;4969051;28;94862;-65
2021/12/09 02:17:42;;;;;;;17.15;5.43;;;;;;;;;;4955116;28;95976;-64
2021/12/09 02:20:10;;;;;;;14.25;5.07;;;;;;;;;;4967131;28;93024;-65
2021/12/09 02:22:36;;;;;;;16.52;5.40;;;;;;;;;;4972559;28;92532;-64
2021/12/09 02:25:02;;;;;;;16.58;5.60;;;;;;;;;;4972067;28;92996;-64
2021/12/09 02:27:29;;;;;;;12.52;5.05;;;;;;;;;;4971563;28;95037;-64
2021/12/09 02:29:56;;;;;;;8.18;4.80;;;;;;;;;;4971957;28;92455;-64
2021/12/09 02:32:23;;;;;;;14.13;5.35;;;;;;;;;;4972429;28;93197;-64
2021/12/09 02:34:49;;;;;;;18.90;5.20;;;;;;;;;;4974018;28;93980;-64
2021/12/09 02:37:15;;;;;;;9.82;4.57;;;;;;;;;;4972224;28;92775;-64
2021/12/09 02:39:42;;;;;;;15.13;4.68;;;;;;;;;;4970153;28;96191;-64
2021/12/09 02:42:09;;;;;;;12.20;5.68;;;;;;;;;;4975526;28;92421;-64
2021/12/09 02:44:35;;;;;;;16.27;4.78;;;;;;;;;;4976220;28;94990;-65
2021/12/09 02:47:02;;;;;;;11.60;5.38;;;;;;;;;;4957287;28;92497;-64
2021/12/09 02:49:30;;;;;;;12.93;4.82;;;;;;;;;;4972593;28;93921;-64
2021/12/09 02:51:58;;;;;;;17.60;4.88;;;;;;;;;;4969374;28;93146;-65
2021/12/09 02:54:25;;;;;;;13.63;5.40;;;;;;;;;;4955296;28;94197;-65
2021/12/09 02:56:54;;;;;;;15.95;5.57;;;;;;;;;;4979513;28;91722;-65
2021/12/09 02:59:20;;;;;;;14.70;4.72;;;;;;;;;;4974911;28;92359;-64
2021/12/09 03:02:10;;;;;;;12.57;4.82;;;;;;;;;;4975528;28;92606;-64
2021/12/09 03:04:41;;;;;;;21.00;5.30;;;;;;;;;;4960727;28;94771;-64
2021/12/09 03:07:13;;;;;;;16.17;5.30;;;;;;;;;;4975977;28;92250;-64
2021/12/09 03:09:48;;;;;;;22.63;5.97;;;;;;;;;;4959219;28;92694;-64
2021/12/09 03:12:19;;;;;;;16.38;5.75;;;;;;;;;;4972321;28;94252;-64
2021/12/09 03:14:45;;;;;;;12.00;4.95;;;;;;;;;;4974681;28;95727;-64
2021/12/09 03:17:12;;;;;;;20.35;5.28;;;;;;;;;;4973935;28;92424;-64
2021/12/09 03:19:38;;;;;;;20.63;5.53;;;;;;;;;;4977938;28;93161;-64
2021/12/09 03:22:05;;;;;;;11.48;4.82;;;;;;;;;;4974652;28;92382;-64
2021/12/09 03:24:31;;;;;;;11.35;5.13;;;;;;;;;;4974915;28;92432;-64
2021/12/09 03:26:58;;;;;;;11.48;4.97;;;;;;;;;;4975159;28;93580;-64
2021/12/09 03:29:25;;;;;;;27.45;5.20;;;;;;;;;;4973509;28;95170;-64
2021/12/09 03:31:53;;;;;;;13.20;5.13;;;;;;;;;;4956179;28;95645;-64
2021/12/09 03:34:20;;;;;;;12.70;5.07;;;;;;;;;;4974937;28;92475;-64
2021/12/09 03:36:48;;;;;;;19.00;5.07;;;;;;;;;;4976299;28;92748;-64
2021/12/09 03:39:18;;;;;;;17.85;5.32;;;;;;;;;;4976294;28;92343;-64
2021/12/09 03:41:46;;;;;;;16.03;5.43;;;;;;;;;;4961487;28;92550;-65
2021/12/09 03:44:12;;;;;;;20.05;4.97;;;;;;;;;;4974516;28;93275;-65
2021/12/09 03:46:38;;;;;;;17.15;5.13;;;;;;;;;;4973586;28;91648;-65
2021/12/09 03:49:05;;;;;;;15.55;5.47;;;;;;;;;;4956667;28;92562;-65
2021/12/09 03:51:35;;;;;;;11.93;5.15;;;;;;;;;;4974116;28;93164;-65
2021/12/09 03:54:05;;;;;;;17.60;7.30;;;;;;;;;;4972374;28;95149;-65
2021/12/09 03:56:32;;;;;;;16.33;5.43;;;;;;;;;;4975222;28;92304;-65
2021/12/09 03:58:59;;;;;;;15.15;5.00;;;;;;;;;;4982725;28;95602;-64
2021/12/09 04:01:25;;;;;;;13.48;5.30;;;;;;;;;;4974835;28;93542;-64
2021/12/09 04:03:53;;;;;;;12.73;5.10;;;;;;;;;;4976626;28;92435;-64
2021/12/09 04:06:19;;;;;;;15.07;5.22;;;;;;;;;;4973848;28;95976;-64
2021/12/09 04:08:47;;;;;;;17.27;4.88;;;;;;;;;;4973760;28;92735;-64
2021/12/09 04:11:14;;;;;;;20.63;5.50;;;;;;;;;;4956828;28;93181;-64
2021/12/09 04:13:40;;;;;;;11.77;4.97;;;;;;;;;;4973720;28;96003;-64
2021/12/09 04:16:10;;;;;;;14.95;5.22;;;;;;;;;;4956499;28;92616;-64
2021/12/09 04:18:37;;;;;;;18.90;5.38;;;;;;;;;;4969975;28;94774;-64
2021/12/09 04:21:04;;;;;;;18.95;5.05;;;;;;;;;;4972641;28;93702;-64
2021/12/09 04:23:31;;;;;;;19.50;4.80;;;;;;;;;;4976502;28;92537;-65
2021/12/09 04:25:58;;;;;;;14.38;5.32;;;;;;;;;;4971288;28;94814;-66
2021/12/09 04:28:24;;;;;;;12.57;4.53;;;;;;;;;;4973889;28;92404;-65
2021/12/09 04:30:51;;;;;;;15.32;4.80;;;;;;;;;;4972446;28;92531;-65
2021/12/09 04:33:17;;;;;;;12.73;4.97;;;;;;;;;;4973328;28;95144;-64
2021/12/09 04:35:43;;;;;;;17.90;5.03;;;;;;;;;;4973652;28;92003;-65
2021/12/09 04:38:10;;;;;;;20.65;5.10;;;;;;;;;;4974062;28;92535;-65
2021/12/09 04:40:37;;;;;;;12.20;4.90;;;;;;;;;;4974621;28;92532;-65
2021/12/09 04:43:04;;;;;;;15.48;4.85;;;;;;;;;;4973338;28;94987;-65
2021/12/09 04:45:33;;;;;;;14.63;3.95;;;;;;;;;;4976334;28;94288;-65
2021/12/09 04:47:59;;;;;;;18.50;4.80;;;;;;;;;;4973029;28;92621;-65
2021/12/09 04:50:26;;;;;;;12.57;4.72;;;;;;;;;;4953708;28;93095;-65
2021/12/09 04:52:53;;;;;;;15.35;4.32;;;;;;;;;;4972445;28;93758;-65
2021/12/09 04:55:19;;;;;;;11.20;4.45;;;;;;;;;;4972360;28;92567;-65
2021/12/09 04:57:46;;;;;;;19.35;4.53;;;;;;;;;;4970616;28;92566;-65
2021/12/09 05:00:14;;;;;;;15.23;4.63;;;;;;;;;;4972480;28;93362;-65
2021/12/09 05:03:01;;;;;;;15.60;4.53;;;;;;;;;;4972903;28;92510;-65
2021/12/09 05:05:27;;;;;;;19.52;4.95;;;;;;;;;;4974028;28;92396;-65
2021/12/09 05:07:54;;;;;;;19.23;4.47;;;;;;;;;;4975905;28;94726;-65
2021/12/09 05:10:20;;;;;;;24.35;4.63;;;;;;;;;;4957423;28;95724;-65
2021/12/09 05:12:47;;;;;;;17.60;4.75;;;;;;;;;;4973839;28;93603;-65
2021/12/09 05:15:13;;;;;;;17.48;4.75;;;;;;;;;;4974900;28;92457;-65
2021/12/09 05:17:39;;;;;;;13.60;4.03;;;;;;;;;;4958817;28;95237;-65
2021/12/09 05:20:06;;;;;;;17.40;4.47;;;;;;;;;;4974380;28;93093;-65
2021/12/09 05:22:32;;;;;;;14.57;4.90;;;;;;;;;;4957017;28;92410;-65
2021/12/09 05:24:59;;;;;;;12.88;4.85;;;;;;;;;;4975769;28;93377;-65
2021/12/09 05:27:25;;;;;;;17.58;4.60;;;;;;;;;;4974598;28;92606;-65
2021/12/09 05:30:03;;;;;;;19.98;4.88;;;;;;;;;;4977366;28;92495;-65
2021/12/09 05:32:30;;;;;;;24.38;4.90;;;;;;;;;;4972017;28;95941;-65
2021/12/09 05:34:57;;;;;;;19.13;4.30;;;;;;;;;;4974425;28;92450;-65
2021/12/09 05:37:24;;;;;;;15.98;4.63;;;;;;;;;;4973902;28;92484;-65
2021/12/09 05:39:51;;;;;;;18.95;4.85;;;;;;;;;;4974613;28;94753;-64
2021/12/09 05:42:19;;;;;;;23.08;5.68;;;;;;;;;;4974446;28;92310;-65
2021/12/09 05:44:45;;;;;;;18.17;5.40;;;;;;;;;;4974116;28;93366;-65
2021/12/09 05:47:12;;;;;;;24.25;5.10;;;;;;;;;;4974098;28;92277;-65
2021/12/09 05:49:40;;;;;;;19.13;4.45;;;;;;;;;;4973092;28;91713;-65
2021/12/09 05:52:07;;;;;;;20.63;4.22;;;;;;;;;;4959838;28;92668;-65
2021/12/09 05:54:33;;;;;;;15.35;5.88;;;;;;;;;;4969861;28;92477;-65
2021/12/09 05:56:59;;;;;;;17.60;4.65;;;;;;;;;;4956728;28;94778;-65
2021/12/09 05:59:26;;;;;;;17.20;4.22;;;;;;;;;;4973476;28;92456;-65
2021/12/09 06:01:53;;;;;;;12.38;4.75;;;;;;;;;;4974215;28;92363;-65
2021/12/09 06:04:21;;;;;;;15.98;5.18;;;;;;;;;;4973850;28;92304;-67
2021/12/09 06:06:48;;;;;;;14.38;4.90;;;;;;;;;;4973995;28;92643;-65
2021/12/09 06:09:14;;;;;;;20.48;4.95;;;;;;;;;;4959733;28;93982;-64
2021/12/09 06:11:41;;;;;;;22.00;4.20;;;;;;;;;;4956088;28;92314;-65
2021/12/09 06:14:08;;;;;;;12.10;4.07;;;;;;;;;;4979507;28;94020;-65
2021/12/09 06:16:35;;;;;;;7.95;3.78;;;;;;;;;;4976715;28;92828;-65
2021/12/09 06:19:02;;;;;;;15.57;4.63;;;;;;;;;;4976454;28;92520;-65
2021/12/09 06:21:28;;;;;;;21.98;5.07;;;;;;;;;;4975158;28;94668;-64
2021/12/09 06:23:55;;;;;;;14.25;4.07;;;;;;;;;;4977319;28;94229;-65
2021/12/09 06:26:22;;;;;;;16.08;4.32;;;;;;;;;;4977406;28;94473;-65
2021/12/09 06:28:48;;;;;;;10.80;4.03;;;;;;;;;;4977286;28;92355;-64
2021/12/09 06:31:15;;;;;;;15.52;4.45;;;;;;;;;;4976749;28;93361;-65
2021/12/09 06:33:41;;;;;;;16.98;4.72;;;;;;;;;;4978033;28;92531;-65
2021/12/09 06:36:07;;;;;;;10.65;4.30;;;;;;;;;;4977457;28;94291;-65
2021/12/09 06:38:34;;;;;;;15.88;4.85;;;;;;;;;;4977486;28;93367;-65
2021/12/09 06:41:01;;;;;;;16.55;4.68;;;;;;;;;;4977583;28;92468;-65
2021/12/09 06:43:27;;;;;;;17.40;4.47;;;;;;;;;;4976816;28;92373;-65
2021/12/09 06:45:55;;;;;;;19.42;4.88;;;;;;;;;;4975605;28;95080;-64
2021/12/09 06:48:21;;;;;;;13.60;4.40;;;;;;;;;;4975923;28;92465;-65
2021/12/09 06:50:48;;;;;;;12.05;4.25;;;;;;;;;;4976528;28;94549;-65
2021/12/09 06:53:16;;;;;;;19.33;4.47;;;;;;;;;;4973310;28;94609;-65
2021/12/09 06:55:43;;;;;;;19.35;5.22;;;;;;;;;;4979274;28;92674;-65
2021/12/09 06:58:10;;;;;;;22.27;5.88;;;;;;;;;;4957302;28;93497;-65
2021/12/09 07:00:43;;;;;;;11.38;5.43;;;;;;;;;;4974993;28;92305;-65
2021/12/09 07:03:10;;;;;;;15.68;5.13;;;;;;;;;;4968292;28;93738;-64
2021/12/09 07:05:37;;;;;;;15.27;4.70;;;;;;;;;;4974622;28;92681;-64
2021/12/09 07:08:04;;;;;;;18.65;4.82;;;;;;;;;;4977010;28;92353;-65
2021/12/09 07:10:31;;;;;;;12.73;4.75;;;;;;;;;;4975231;28;94812;-65
2021/12/09 07:12:57;;;;;;;12.00;4.78;;;;;;;;;;4974888;28;92678;-65
2021/12/09 07:15:23;;;;;;;14.15;4.40;;;;;;;;;;4976950;28;92365;-65
2021/12/09 07:17:50;;;;;;;19.25;5.20;;;;;;;;;;4961890;28;92415;-65
2021/12/09 07:20:18;;;;;;;12.98;5.00;;;;;;;;;;4976846;28;92393;-65
2021/12/09 07:22:45;;;;;;;12.65;4.45;;;;;;;;;;4975925;28;92449;-65
2021/12/09 07:25:12;;;;;;;14.00;5.18;;;;;;;;;;4967226;28;93603;-65
2021/12/09 07:27:38;;;;;;;14.50;4.82;;;;;;;;;;4959340;28;91737;-65
2021/12/09 07:30:05;;;;;;;11.07;4.88;;;;;;;;;;4976388;28;92407;-65
2021/12/09 07:32:34;;;;;;;14.35;5.15;;;;;;;;;;4958161;28;93643;-65
2021/12/09 07:35:01;;;;;;;14.88;4.63;;;;;;;;;;4974797;28;94767;-65
2021/12/09 07:37:28;;;;;;;17.67;5.00;;;;;;;;;;4958505;28;95885;-65
2021/12/09 07:39:54;;;;;;;19.70;5.72;;;;;;;;;;4979331;28;94811;-64
2021/12/09 07:42:20;;;;;;;16.98;5.13;;;;;;;;;;4970804;28;93362;-65
2021/12/09 07:44:47;;;;;;;18.35;6.03;;;;;;;;;;4956898;28;92501;-65
2021/12/09 07:47:13;;;;;;;18.67;6.55;;;;;;;;;;4976633;28;92396;-65
2021/12/09 07:49:40;;;;;;;19.75;8.23;;;;;;;;;;4975732;28;92973;-66
2021/12/09 07:52:06;;;;;;;23.70;8.05;;;;;;;;;;4971499;28;92813;-66
2021/12/09 07:54:33;;;;;;;22.40;7.72;;;;;;;;;;4948546;28;92410;-66
2021/12/09 07:56:59;;;;;;;10.93;5.55;;;;;;;;;;4973189;28;93073;-66
2021/12/09 07:59:25;;;;;;;15.98;6.00;;;;;;;;;;4973664;28;95870;-65
2021/12/09 08:01:52;;;;;;;14.40;4.55;;;;;;;;;;4961701;28;92461;-66
2021/12/09 08:04:18;;;;;;;19.58;5.45;;;;;;;;;;4975301;28;93368;-65
2021/12/09 08:06:44;;;;;;;13.38;4.95;;;;;;;;;;4959446;28;92444;-66
2021/12/09 08:09:11;;;;;;;16.98;4.90;;;;;;;;;;4972437;28;93771;-66
2021/12/09 08:11:37;;;;;;;14.63;4.70;;;;;;;;;;4974494;28;94952;-66
2021/12/09 08:14:05;;;;;;;16.15;4.20;;;;;;;;;;4974742;28;92687;-66
2021/12/09 08:16:33;;;;;;;12.30;4.43;;;;;;;;;;4975477;28;93367;-66
2021/12/09 08:19:00;;;;;;;21.48;5.13;;;;;;;;;;4950651;28;92493;-66
2021/12/09 08:21:27;;;;;;;11.02;4.22;;;;;;;;;;4957862;28;92375;-66
2021/12/09 08:23:53;;;;;;;9.43;4.10;;;;;;;;;;4968723;28;94958;-66
2021/12/09 08:26:20;;;;;;;16.40;5.57;;;;;;;;;;4975243;28;92412;-66
2021/12/09 08:28:47;;;;;;;17.63;4.72;;;;;;;;;;4974974;28;93651;-65
2021/12/09 08:31:13;;;;;;;15.05;4.90;;;;;;;;;;4974838;28;93573;-66
2021/12/09 08:33:39;;;;;;;17.02;4.45;;;;;;;;;;4956916;28;92625;-65
2021/12/09 08:36:26;;;;;;;18.90;4.82;;;;;;;;;;4967195;28;92548;-66
2021/12/09 08:38:52;;;;;;;11.93;3.88;;;;;;;;;;4964663;28;92660;-66
2021/12/09 08:41:19;;;;;;;15.48;3.90;;;;;;;;;;4976102;28;91775;-66
2021/12/09 08:43:46;;;;;;;13.45;4.68;;;;;;;;;;4977861;28;92490;-65
2021/12/09 08:46:15;;;;;;;17.27;4.80;;;;;;;;;;4975735;28;92294;-65
2021/12/09 08:48:42;;;;;;;10.48;4.63;;;;;;;;;;4973514;28;94703;-66
2021/12/09 08:51:08;;;;;;;9.68;4.20;;;;;;;;;;4974518;28;93857;-66
2021/12/09 08:53:34;;;;;;;18.05;5.93;;;;;;;;;;4974563;28;92385;-64
2021/12/09 08:56:02;;;;;;;13.88;4.63;;;;;;;;;;4975394;28;94274;-66
2021/12/09 08:58:29;;;;;;;16.45;4.40;;;;;;;;;;4975010;28;92392;-66
2021/12/09 09:00:58;;;;;;;14.98;4.60;;;;;;;;;;4974364;28;92806;-65
2021/12/09 09:03:26;;;;;;;16.20;4.70;;;;;;;;;;4974764;28;92325;-68
2021/12/09 09:05:53;;;;;;;10.27;4.30;;;;;;;;;;4959625;28;92777;-66
2021/12/09 09:08:20;;;;;;;11.35;4.57;;;;;;;;;;4974358;28;92365;-66
2021/12/09 09:10:46;;;;;;;18.55;5.03;;;;;;;;;;4974459;28;93542;-66
2021/12/09 09:13:13;;;;;;;9.23;4.78;;;;;;;;;;4972805;28;94723;-66
2021/12/09 09:15:40;;;;;;;13.85;4.88;;;;;;;;;;4973886;28;94720;-66
2021/12/09 09:18:07;;;;;;;21.27;5.05;;;;;;;;;;4954082;28;92491;-66
2021/12/09 09:20:38;;;;;;;9.18;4.32;;;;;;;;;;4950605;28;92445;-66
2021/12/09 09:23:07;;;;;;;11.38;5.50;;;;;;;;;;4974982;28;93482;-66
2021/12/09 09:25:34;;;;;;;16.45;5.55;;;;;;;;;;4972806;28;92655;-66
2021/12/09 09:28:00;;;;;;;18.55;5.60;;;;;;;;;;4977432;28;92366;-66
2021/12/09 09:30:34;;;;;;;15.50;5.85;;;;;;;;;;4970469;28;93190;-65
2021/12/09 09:33:02;;;;;;;17.15;6.40;;;;;;;;;;4954908;28;92447;-66
2021/12/09 09:35:28;;;;;;;15.30;5.60;;;;;;;;;;4973583;28;92361;-66
2021/12/09 09:37:54;;;;;;;10.45;5.30;;;;;;;;;;4972536;28;95866;-66
2021/12/09 09:40:27;;;;;;;17.27;5.78;;;;;;;;;;4956553;28;92457;-67
2021/12/09 09:42:59;;;;;;;13.65;5.47;;;;;;;;;;4975101;28;95000;-66
2021/12/09 09:45:25;;;;;;;13.23;5.00;;;;;;;;;;4974232;28;92466;-66
2021/12/09 09:47:53;;;;;;;15.07;5.57;;;;;;;;;;4974518;28;92261;-66
2021/12/09 09:50:19;;;;;;;12.02;5.45;;;;;;;;;;4959161;28;93787;-65
2021/12/09 09:52:46;;;;;;;13.25;5.72;;;;;;;;;;4974322;28;92815;-65
2021/12/09 09:55:20;;;;;;;14.30;5.60;;;;;;;;;;4974489;28;93680;-67
2021/12/09 09:57:47;;;;;;;14.93;6.40;;;;;;;;;;4974647;28;96444;-65
2021/12/09 10:00:14;;;;;;;21.35;6.75;;;;;;;;;;4957236;28;92525;-65
2021/12/09 10:02:41;;;;;;;16.25;6.20;;;;;;;;;;4973018;28;94770;-65
2021/12/09 10:05:08;;;;;;;17.30;7.03;;;;;;;;;;4956877;28;93425;-65
2021/12/09 10:07:35;;;;;;;14.63;6.20;;;;;;;;;;4973467;28;92788;-65
2021/12/09 10:10:04;;;;;;;13.95;6.57;;;;;;;;;;4973591;28;93214;-65
2021/12/09 10:12:30;;;;;;;17.05;5.68;;;;;;;;;;4976875;28;93456;-65
2021/12/09 10:14:57;;;;;;;15.30;6.25;;;;;;;;;;4973546;28;93242;-65
2021/12/09 10:17:26;;;;;;;16.45;5.13;;;;;;;;;;4973746;28;92406;-66
2021/12/09 10:20:08;;;;;;;16.33;5.53;;;;;;;;;;4974395;28;91693;-65
2021/12/09 10:22:35;;;;;;;11.02;5.30;;;;;;;;;;4974100;28;93476;-65
2021/12/09 10:25:03;;;;;;;17.98;6.03;;;;;;;;;;4973893;28;93595;-65
2021/12/09 10:27:33;;;;;;;21.52;6.20;;;;;;;;;;4953802;28;94936;-65
2021/12/09 10:30:10;;;;;;;16.08;5.68;;;;;;;;;;4965866;28;95836;-66
2021/12/09 10:32:37;;;;;;;23.92;8.52;;;;;;;;;;4974030;28;92583;-66
2021/12/09 10:35:07;;;;;;;16.08;6.47;;;;;;;;;;4976901;28;92386;-66
2021/12/09 10:37:34;;;;;;;27.05;8.73;;;;;;;;;;4955861;28;94372;-67
2021/12/09 10:40:06;;;;;;;18.80;7.50;;;;;;;;;;4973441;28;92525;-67
2021/12/09 10:42:35;;;;;;;19.52;7.32;;;;;;;;;;4956207;28;93786;-68
2021/12/09 10:45:02;;;;;;;19.58;7.55;;;;;;;;;;4956197;28;92938;-67
2021/12/09 10:50:28;;;;;;;21.30;7.70;;;;;;;;;;4972740;28;93140;-67
2021/12/09 10:52:58;;;;;;;21.15;8.07;;;;;;;;;;4961484;28;95128;-67
2021/12/09 10:55:26;;;;;;;24.17;8.75;;;;;;;;;;4959465;28;92479;-67
2021/12/09 10:58:01;;;;;;;20.77;9.13;;;;;;;;;;4955581;28;93545;-67
2021/12/09 11:00:39;;;;;;;19.95;8.15;;;;;;;;;;4957392;28;92417;-67
2021/12/09 11:03:08;;;;;;;23.60;9.35;;;;;;;;;;4956835;28;93240;-67
2021/12/09 11:05:39;;;;;;;29.27;8.80;;;;;;;;;;4957331;28;93388;-67
2021/12/09 11:08:16;;;;;;;17.50;8.15;;;;;;;;;;4956906;28;92355;-67
2021/12/09 11:10:47;;;;;;;26.58;10.95;;;;;;;;;;4971911;28;91680;-67
2021/12/09 11:13:15;;;;;;;35.90;13.95;;;;;;;;;;4975065;28;92753;-67
2021/12/09 11:15:57;;;;;;;24.38;9.40;;;;;;;;;;4941138;28;92343;-67
2021/12/09 11:18:34;;;;;;;26.67;9.07;;;;;;;;;;4941331;28;94884;-67
2021/12/09 11:21:06;;;;;;;25.20;9.23;;;;;;;;;;4974135;28;92598;-67
2021/12/09 11:23:35;;;;;;;17.38;8.70;;;;;;;;;;4959315;28;92414;-67
2021/12/09 11:26:21;;;;;;;31.95;9.25;;;;;;;;;;4976527;28;97550;-66
2021/12/09 11:28:55;;;;;;;22.23;8.45;;;;;;;;;;4968811;28;92408;-68
2021/12/09 11:31:24;;;;;;;24.05;7.82;;;;;;;;;;4958453;28;92371;-68
2021/12/09 11:33:55;;;;;;;20.10;8.63;;;;;;;;;;4956083;28;92396;-68
2021/12/09 11:36:40;;;;;;;16.77;8.02;;;;;;;;;;4969173;28;91708;-68
2021/12/09 11:39:10;;;;;;;19.70;8.85;;;;;;;;;;4959238;28;92603;-70
2021/12/09 11:41:38;;;;;;;21.40;8.30;;;;;;;;;;4979291;28;92522;-69
2021/12/09 11:44:08;;;;;;;19.02;8.50;;;;;;;;;;4956846;28;94818;-69
2021/12/09 11:46:35;;;;;;;20.88;9.05;;;;;;;;;;4975150;28;93690;-68
2021/12/09 11:49:03;;;;;;;21.65;8.30;;;;;;;;;;4976178;28;92489;-68
2021/12/09 11:51:29;;;;;;;21.02;8.23;;;;;;;;;;4964249;28;93168;-69
2021/12/09 11:53:57;;;;;;;18.13;8.63;;;;;;;;;;4975381;28;94397;-69
2021/12/09 11:56:37;;;;;;;25.35;9.93;;;;;;;;;;4966483;28;92474;-69
2021/12/09 12:07:31;;;;;;;17.38;8.60;;;;;;;;;;4974962;28;92445;-68
2021/12/09 12:12:37;;;;;;;21.17;10.38;;;;;;;;;;4976480;28;95525;-68
2021/12/09 12:23:40;;;;;;;18.83;9.02;;;;;;;;;;4976088;28;93446;-68
2021/12/09 12:26:32;;;;;;;18.35;10.18;;;;;;;;;;4975237;28;92389;-68
2021/12/09 12:29:23;;;;;;;17.77;9.10;;;;;;;;;;4977893;28;92310;-68
2021/12/09 12:40:45;;;;;;;22.17;10.20;;;;;;;;;;4956904;28;92607;-68
2021/12/09 12:43:23;;;;;;;17.52;9.25;;;;;;;;;;4957362;28;94663;-70
2021/12/09 12:46:10;;;;;;;16.35;10.60;;;;;;;;;;4975359;28;93801;-70
2021/12/09 12:51:13;;;;;;;19.17;11.07;;;;;;;;;;4976901;28;93480;-70
2021/12/09 12:53:42;;;;;;;19.92;9.88;;;;;;;;;;4973314;28;92470;-70
2021/12/09 12:56:14;;;;;;;18.27;10.75;;;;;;;;;;4966327;28;93489;-70
2021/12/09 12:58:59;;;;;;;22.92;11.38;;;;;;;;;;4973008;28;92300;-70
2021/12/09 13:01:25;;;;;;;23.80;11.90;;;;;;;;;;4956953;28;92486;-70
2021/12/09 13:03:56;;;;;;;16.85;10.50;;;;;;;;;;4955157;28;94905;-69
2021/12/09 13:06:29;;;;;;;;;;;;;;;;;;4956585;28;93646;-69
2021/12/09 13:09:18;;;;;;;19.50;10.38;;;;;;;;;;4975219;28;118646;-69
2021/12/09 13:11:45;;;;;;;21.48;11.32;;;;;;;;;;4974269;28;93432;-69
2021/12/09 13:14:23;;;;;;;26.00;11.65;;;;;;;;;;4958860;28;94553;-69
2021/12/09 13:16:49;;;;;;;20.98;11.15;;;;;;;;;;4974095;28;93405;-69
2021/12/09 13:19:35;;;;;;;24.92;13.40;;;;;;;;;;4973558;28;93300;-70
2021/12/09 13:22:03;;;;;;;22.85;11.65;;;;;;;;;;4973560;28;91544;-70
2021/12/09 13:24:33;;;;;;;22.42;12.27;;;;;;;;;;4958305;28;92492;-71
2021/12/09 13:30:18;;;;;;;25.73;12.38;;;;;;;;;;4958920;28;94847;-70
2021/12/09 13:46:12;;;;;;;30.58;14.30;;;;;;;;;;4973356;28;93288;-70
2021/12/09 13:48:47;;;;;;;27.60;14.40;;;;;;;;;;4955513;28;91775;-70
2021/12/09 13:51:29;;;;;;;22.20;13.98;;;;;;;;;;4973141;28;92444;-70
2021/12/09 13:54:18;;;;;;;26.20;13.88;;;;;;;;;;4971587;28;92483;-70
2021/12/09 13:56:45;;;;;;;31.35;15.65;;;;;;;;;;4971032;28;97429;-70
2021/12/09 13:59:15;;;;;;;26.52;15.13;;;;;;;;;;4971785;28;92851;-70
2021/12/09 14:01:42;;;;;;;27.07;15.40;;;;;;;;;;4959091;28;92560;-70
2021/12/09 14:04:08;;;;;;;24.60;15.38;;;;;;;;;;4973261;28;92418;-70
2021/12/09 14:06:35;;;;;;;30.23;17.02;;;;;;;;;;4956343;28;93134;-70
2021/12/09 14:09:01;;;;;;;28.15;16.83;;;;;;;;;;4971668;28;93356;-70
2021/12/09 14:11:40;;;;;;;30.10;17.65;;;;;;;;;;4956491;28;92453;-70
2021/12/09 14:14:11;;;;;;;24.33;16.02;;;;;;;;;;4957067;28;92680;-71
2021/12/09 14:17:02;;;;;;;30.40;16.48;;;;;;;;;;4956204;28;92821;-71
2021/12/09 14:22:26;;;;;;;37.85;19.13;;;;;;;;;;4971474;28;94895;-72
2021/12/09 14:24:52;;;;;;;34.80;17.08;;;;;;;;;;4957552;28;92476;-71
2021/12/09 14:27:20;;;;;;;37.50;18.85;;;;;;;;;;4956001;28;93210;-72
2021/12/09 14:29:48;;;;;;;38.53;21.95;;;;;;;;;;4964876;28;93266;-71
2021/12/09 14:32:15;;;;;;;33.92;20.08;;;;;;;;;;4973615;28;92353;-70
2021/12/09 14:34:43;;;;;;;37.72;19.90;;;;;;;;;;4976698;28;93893;-70
2021/12/09 14:37:25;;;;;;;32.60;19.10;;;;;;;;;;4975877;28;92571;-73
2021/12/09 14:40:21;;;;;;;33.53;20.58;;;;;;;;;;4959440;28;91701;-74
2021/12/09 14:42:56;;;;;;;39.00;19.73;;;;;;;;;;4943241;28;94606;-73
2021/12/09 14:45:26;;;;;;;34.50;20.52;;;;;;;;;;4973596;28;93617;-73
2021/12/09 14:48:08;;;;;;;31.05;19.40;;;;;;;;;;4963723;28;94812;-70
2021/12/09 14:50:34;;;;;;;31.15;19.05;;;;;;;;;;4975846;28;93725;-70
2021/12/09 14:53:33;;;;;;;41.22;19.20;;;;;;;;;;4975221;28;92424;-70
2021/12/09 14:56:00;;;;;;;35.17;19.90;;;;;;;;;;4957508;28;93207;-70
2021/12/09 14:58:26;;;;;;;42.53;20.88;;;;;;;;;;4976238;28;93492;-70
2021/12/09 15:00:59;;;;;;;32.15;19.10;;;;;;;;;;4975892;28;92452;-70
2021/12/09 15:03:36;;;;;;;31.85;18.90;;;;;;;;;;4976425;28;93492;-70
2021/12/09 15:06:27;;;;;;;37.47;19.98;;;;;;;;;;4961985;28;92542;-70
2021/12/09 15:09:00;;;;;;;31.27;18.27;;;;;;;;;;4962482;28;92467;-70
2021/12/09 15:11:27;;;;;;;29.65;18.38;;;;;;;;;;4976825;28;95117;-70
2021/12/09 15:13:54;;;;;;;32.20;19.17;;;;;;;;;;4973959;28;94872;-70
2021/12/09 15:16:23;;;;;;;32.70;18.40;;;;;;;;;;4975384;28;94291;-70
2021/12/09 15:18:50;;;;;;;34.78;18.23;;;;;;;;;;4958964;28;95254;-70
2021/12/09 15:21:17;;;;;;;31.92;18.88;;;;;;;;;;4974930;28;92396;-70
2021/12/09 15:26:15;;;;;;;32.70;19.35;;;;;;;;;;4976411;28;93276;-70
2021/12/09 15:28:41;;;;;;;32.28;19.83;;;;;;;;;;4976023;28;92481;-71
2021/12/09 15:31:16;;;;;;;34.80;20.67;;;;;;;;;;4979803;28;92321;-71
2021/12/09 15:33:44;;;;;;;43.40;21.80;;;;;;;;;;4958867;28;92411;-69
2021/12/09 15:36:17;;;;;;;35.40;20.48;;;;;;;;;;4975095;28;93282;-69